Time;durP1;ratioP1;P1;durP2;ratioP2;P2;SDS_P1;SDS_P2;PMS_P1;PMS_P2;Temp;Humidity;BMP_temperature;BMP_pressure;BME280_temperature;BME280_humidity;BME280_pressure;Samples;Min_cycle;Max_cycle;Signal;HPM_P1;HPM_P2
2023/01/29 00:01:17;;;;;;;32.15;20.38;;;;;;;;;;5111779;28;20560;-66
2023/01/29 00:03:44;;;;;;;37.05;21.48;;;;;;;;;;5094608;28;20198;-65
2023/01/29 00:06:11;;;;;;;38.15;22.13;;;;;;;;;;5093567;28;20242;-66
2023/01/29 00:08:40;;;;;;;38.58;21.98;;;;;;;;;;5095524;28;20192;-66
2023/01/29 00:11:08;;;;;;;38.35;23.65;;;;;;;;;;5094277;28;20190;-66
2023/01/29 00:13:36;;;;;;;39.28;21.77;;;;;;;;;;5095501;28;20213;-66
2023/01/29 00:16:03;;;;;;;35.85;23.35;;;;;;;;;;5092311;28;20195;-66
2023/01/29 00:18:31;;;;;;;39.83;22.92;;;;;;;;;;5092008;28;20194;-66
2023/01/29 00:20:59;;;;;;;33.97;19.60;;;;;;;;;;5092860;28;20539;-67
2023/01/29 00:23:26;;;;;;;36.33;21.30;;;;;;;;;;5092454;28;20212;-67
2023/01/29 00:25:55;;;;;;;35.83;22.00;;;;;;;;;;5092380;28;20194;-66
2023/01/29 00:28:22;;;;;;;37.35;21.88;;;;;;;;;;5092564;28;20554;-67
2023/01/29 00:30:49;;;;;;;38.45;22.00;;;;;;;;;;5092467;28;20194;-66
2023/01/29 00:33:16;;;;;;;39.92;22.00;;;;;;;;;;5092801;28;20215;-66
2023/01/29 00:35:43;;;;;;;36.85;20.35;;;;;;;;;;5092244;28;20196;-67
2023/01/29 00:38:10;;;;;;;45.10;24.25;;;;;;;;;;5092429;28;20202;-66
2023/01/29 00:46:10;;;;;;;37.22;22.55;;;;;;;;;;5097249;28;20180;-65
2023/01/29 00:48:37;;;;;;;35.50;22.15;;;;;;;;;;5097339;28;20205;-65
2023/01/29 00:51:04;;;;;;;36.60;22.00;;;;;;;;;;5097405;28;20199;-66
2023/01/29 00:53:32;;;;;;;40.15;22.90;;;;;;;;;;5097501;28;20239;-66
2023/01/29 00:55:59;;;;;;;46.88;24.10;;;;;;;;;;5097147;28;20234;-65
2023/01/29 00:58:33;;;;;;;38.65;22.02;;;;;;;;;;5116850;28;20240;-65
2023/01/29 01:01:01;;;;;;;35.00;21.15;;;;;;;;;;5116999;27;20646;-68
2023/01/29 01:03:27;;;;;;;39.92;21.38;;;;;;;;;;5120593;27;20202;-65
2023/01/29 01:06:03;;;;;;;34.97;18.10;;;;;;;;;;5117157;28;20549;-67
2023/01/29 01:11:15;;;;;;;38.38;22.70;;;;;;;;;;5116379;28;20230;-66
2023/01/29 01:13:44;;;;;;;39.85;22.75;;;;;;;;;;5115934;28;20705;-66
2023/01/29 01:16:12;;;;;;;42.25;24.08;;;;;;;;;;5116225;28;20190;-66
2023/01/29 01:18:39;;;;;;;40.78;22.92;;;;;;;;;;5116463;28;20194;-66
2023/01/29 01:21:07;;;;;;;42.17;22.77;;;;;;;;;;5115870;28;20200;-66
2023/01/29 01:23:34;;;;;;;44.47;25.50;;;;;;;;;;5116297;28;20296;-66
2023/01/29 01:26:02;;;;;;;42.80;23.70;;;;;;;;;;5116273;28;20193;-66
2023/01/29 01:28:29;;;;;;;43.85;23.42;;;;;;;;;;5116309;28;20550;-66
2023/01/29 01:30:58;;;;;;;42.60;23.13;;;;;;;;;;5116404;28;20292;-66
2023/01/29 01:33:25;;;;;;;49.00;24.60;;;;;;;;;;5115976;28;20442;-66
2023/01/29 01:35:52;;;;;;;46.70;24.75;;;;;;;;;;5116159;28;20185;-66
2023/01/29 01:38:19;;;;;;;46.33;25.90;;;;;;;;;;5116696;28;20193;-66
2023/01/29 01:40:47;;;;;;;39.03;22.77;;;;;;;;;;5116858;28;20197;-66
2023/01/29 01:43:14;;;;;;;48.10;26.00;;;;;;;;;;5116633;28;20224;-66
2023/01/29 01:45:42;;;;;;;54.97;27.02;;;;;;;;;;5116869;28;20197;-66
2023/01/29 01:48:13;;;;;;;41.65;23.77;;;;;;;;;;5117299;28;20610;-66
2023/01/29 01:50:42;;;;;;;40.97;24.60;;;;;;;;;;5116946;28;20195;-66
2023/01/29 01:53:10;;;;;;;44.42;26.88;;;;;;;;;;5115597;28;20216;-65
2023/01/29 01:55:39;;;;;;;44.42;23.88;;;;;;;;;;5116344;28;20194;-66
2023/01/29 01:58:10;;;;;;;44.22;24.42;;;;;;;;;;5116366;28;20235;-66
2023/01/29 02:00:37;;;;;;;41.03;23.80;;;;;;;;;;5116546;28;20192;-66
2023/01/29 02:11:27;;;;;;;48.33;25.38;;;;;;;;;;5116013;28;20180;-65
2023/01/29 02:13:54;;;;;;;44.50;24.10;;;;;;;;;;5116001;28;20588;-66
2023/01/29 02:16:22;;;;;;;48.63;25.35;;;;;;;;;;5115637;28;20691;-65
2023/01/29 02:18:49;;;;;;;39.50;22.83;;;;;;;;;;5115978;28;20193;-65
2023/01/29 02:21:37;;;;;;;47.53;25.30;;;;;;;;;;5115475;28;20205;-65
2023/01/29 02:24:15;;;;;;;43.45;24.38;;;;;;;;;;5116322;28;20190;-65
2023/01/29 02:26:56;;;;;;;45.05;25.85;;;;;;;;;;5116287;28;20203;-66
2023/01/29 02:29:32;;;;;;;41.78;25.30;;;;;;;;;;5116298;28;20542;-66
2023/01/29 02:32:04;;;;;;;54.60;26.35;;;;;;;;;;5115442;28;20721;-65
2023/01/29 02:37:26;;;;;;;38.92;23.25;;;;;;;;;;5115462;28;20184;-66
2023/01/29 02:39:58;;;;;;;42.67;24.35;;;;;;;;;;5115797;28;20263;-66
2023/01/29 02:42:27;;;;;;;47.92;25.70;;;;;;;;;;5115461;28;20197;-66
2023/01/29 02:44:59;;;;;;;50.15;24.63;;;;;;;;;;5115462;28;20260;-65
2023/01/29 02:47:31;;;;;;;44.13;25.17;;;;;;;;;;5115425;28;20196;-65
2023/01/29 02:50:02;;;;;;;49.70;25.85;;;;;;;;;;5115091;28;20177;-66
2023/01/29 02:52:34;;;;;;;42.13;25.35;;;;;;;;;;5115086;28;20192;-66
2023/01/29 02:55:07;;;;;;;46.95;27.50;;;;;;;;;;5115282;28;20235;-66
2023/01/29 02:57:36;;;;;;;45.63;26.65;;;;;;;;;;5115427;28;20225;-66
2023/01/29 03:00:09;;;;;;;39.85;22.55;;;;;;;;;;5115190;28;20616;-66
2023/01/29 03:02:38;;;;;;;46.35;24.08;;;;;;;;;;5117993;27;20197;-66
2023/01/29 03:05:09;;;;;;;46.72;22.88;;;;;;;;;;5115168;28;20566;-66
2023/01/29 03:07:43;;;;;;;43.30;24.92;;;;;;;;;;5115049;28;20191;-66
2023/01/29 03:10:14;;;;;;;50.60;25.45;;;;;;;;;;5117034;27;20602;-66
2023/01/29 03:12:42;;;;;;;46.95;25.77;;;;;;;;;;5114977;28;20520;-66
2023/01/29 03:15:15;;;;;;;52.15;25.25;;;;;;;;;;5114530;28;20218;-66
2023/01/29 03:17:44;;;;;;;52.80;28.13;;;;;;;;;;5114923;28;20238;-65
2023/01/29 03:20:14;;;;;;;42.85;23.23;;;;;;;;;;5114485;28;20197;-66
2023/01/29 03:22:45;;;;;;;46.22;23.73;;;;;;;;;;5114364;28;20200;-66
2023/01/29 03:33:36;;;;;;;44.13;24.83;;;;;;;;;;5114308;28;20205;-66
2023/01/29 03:36:07;;;;;;;49.65;25.90;;;;;;;;;;5114900;28;20179;-66
2023/01/29 03:38:34;;;;;;;42.95;24.10;;;;;;;;;;5114712;28;20188;-65
2023/01/29 03:41:05;;;;;;;43.88;23.60;;;;;;;;;;5114830;28;20289;-66
2023/01/29 03:43:36;;;;;;;48.20;25.38;;;;;;;;;;5114480;28;20213;-66
2023/01/29 03:46:07;;;;;;;45.60;24.00;;;;;;;;;;5114846;28;20196;-66
2023/01/29 03:48:37;;;;;;;47.33;26.13;;;;;;;;;;5114744;28;20189;-66
2023/01/29 03:51:12;;;;;;;41.30;22.02;;;;;;;;;;5114311;28;20192;-66
2023/01/29 03:53:43;;;;;;;44.97;23.88;;;;;;;;;;5113916;28;20211;-66
2023/01/29 03:56:16;;;;;;;44.60;23.35;;;;;;;;;;5113856;28;20200;-66
2023/01/29 03:58:44;;;;;;;45.38;25.65;;;;;;;;;;5114485;28;20549;-66
2023/01/29 04:01:15;;;;;;;43.25;25.55;;;;;;;;;;5113537;27;20196;-66
2023/01/29 04:03:45;;;;;;;45.20;25.08;;;;;;;;;;5131221;27;20200;-66
2023/01/29 04:06:14;;;;;;;48.65;25.48;;;;;;;;;;5134607;27;20204;-66
2023/01/29 04:08:45;;;;;;;42.13;24.65;;;;;;;;;;5128334;28;20276;-66
2023/01/29 04:11:16;;;;;;;47.42;24.40;;;;;;;;;;5114363;28;20192;-66
2023/01/29 04:13:44;;;;;;;40.55;23.15;;;;;;;;;;5113559;28;20193;-66
2023/01/29 04:16:14;;;;;;;45.20;25.65;;;;;;;;;;5113556;28;20285;-66
2023/01/29 04:18:45;;;;;;;43.08;23.50;;;;;;;;;;5113611;28;20177;-66
2023/01/29 04:21:13;;;;;;;40.90;22.40;;;;;;;;;;5113966;28;20184;-66
2023/01/29 04:23:40;;;;;;;43.22;24.48;;;;;;;;;;5113543;28;20199;-66
2023/01/29 04:26:20;;;;;;;42.83;24.35;;;;;;;;;;5113815;28;20334;-66
2023/01/29 04:28:54;;;;;;;44.92;24.42;;;;;;;;;;5113892;28;20648;-66
2023/01/29 04:31:22;;;;;;;46.13;25.83;;;;;;;;;;5113543;28;20184;-66
2023/01/29 04:33:55;;;;;;;42.42;24.35;;;;;;;;;;5113347;28;20194;-66
2023/01/29 04:36:29;;;;;;;46.60;26.05;;;;;;;;;;5114266;28;20187;-66
2023/01/29 04:39:02;;;;;;;45.08;25.92;;;;;;;;;;5113438;28;20181;-65
2023/01/29 04:41:32;;;;;;;45.75;25.48;;;;;;;;;;5113502;28;20632;-65
2023/01/29 04:44:01;;;;;;;48.08;24.02;;;;;;;;;;5113672;28;20203;-67
2023/01/29 04:46:32;;;;;;;44.85;26.85;;;;;;;;;;5113957;28;20193;-66
2023/01/29 04:49:10;;;;;;;45.92;25.88;;;;;;;;;;5113631;28;20197;-65
2023/01/29 04:51:42;;;;;;;46.80;23.63;;;;;;;;;;5114292;28;20187;-65
2023/01/29 04:54:12;;;;;;;39.30;24.60;;;;;;;;;;5113574;28;20218;-65
2023/01/29 04:56:43;;;;;;;40.38;24.20;;;;;;;;;;5113125;28;20235;-66
2023/01/29 04:59:13;;;;;;;51.08;27.92;;;;;;;;;;5116119;28;20180;-66
2023/01/29 05:01:40;;;;;;;41.95;23.45;;;;;;;;;;5133502;28;20275;-66
2023/01/29 05:04:10;;;;;;;44.88;23.80;;;;;;;;;;5133680;28;20289;-66
2023/01/29 05:06:38;;;;;;;43.17;24.95;;;;;;;;;;5133730;28;20199;-66
2023/01/29 05:09:06;;;;;;;47.47;25.77;;;;;;;;;;5133291;28;20192;-66
2023/01/29 05:11:33;;;;;;;47.30;25.85;;;;;;;;;;5133834;28;20282;-65
2023/01/29 05:14:03;;;;;;;44.58;26.08;;;;;;;;;;5133413;28;20189;-65
2023/01/29 05:16:40;;;;;;;41.15;23.77;;;;;;;;;;5133900;28;20188;-65
2023/01/29 05:19:09;;;;;;;47.08;25.10;;;;;;;;;;5133725;28;20192;-66
2023/01/29 05:21:36;;;;;;;50.25;25.30;;;;;;;;;;5133495;28;20193;-65
2023/01/29 05:24:07;;;;;;;43.50;22.38;;;;;;;;;;5133711;28;20195;-65
2023/01/29 05:29:20;;;;;;;47.08;25.58;;;;;;;;;;5114927;28;20202;-65
2023/01/29 05:31:48;;;;;;;48.08;25.58;;;;;;;;;;5117014;28;20289;-65
2023/01/29 05:34:16;;;;;;;43.25;25.05;;;;;;;;;;5116705;28;20224;-65
2023/01/29 05:36:43;;;;;;;42.67;25.02;;;;;;;;;;5116766;28;20195;-65
2023/01/29 05:39:11;;;;;;;42.45;25.35;;;;;;;;;;5116209;28;20197;-65
2023/01/29 05:41:38;;;;;;;49.28;24.77;;;;;;;;;;5117230;28;20191;-65
2023/01/29 05:44:05;;;;;;;45.95;24.48;;;;;;;;;;5116500;28;20196;-65
2023/01/29 05:46:32;;;;;;;46.65;25.00;;;;;;;;;;5116714;28;20614;-65
2023/01/29 05:49:00;;;;;;;48.95;24.35;;;;;;;;;;5116045;28;20189;-65
2023/01/29 05:51:28;;;;;;;44.47;25.92;;;;;;;;;;5116216;28;20193;-65
2023/01/29 05:53:55;;;;;;;43.03;24.35;;;;;;;;;;5116051;28;20193;-65
2023/01/29 05:56:24;;;;;;;42.67;22.95;;;;;;;;;;5115592;28;20222;-65
2023/01/29 05:58:51;;;;;;;41.25;22.63;;;;;;;;;;5116227;28;20286;-65
2023/01/29 06:01:19;;;;;;;47.08;23.88;;;;;;;;;;5115916;28;20207;-65
2023/01/29 06:03:46;;;;;;;41.15;23.08;;;;;;;;;;5116177;28;20194;-65
2023/01/29 06:06:14;;;;;;;45.95;24.13;;;;;;;;;;5116230;28;20200;-65
2023/01/29 06:08:43;;;;;;;39.50;21.17;;;;;;;;;;5115745;28;20204;-65
2023/01/29 06:11:11;;;;;;;42.97;26.05;;;;;;;;;;5115967;28;20202;-65
2023/01/29 06:13:38;;;;;;;47.17;25.95;;;;;;;;;;5115952;28;20197;-65
2023/01/29 06:16:06;;;;;;;43.88;22.98;;;;;;;;;;5116248;28;20221;-65
2023/01/29 06:18:33;;;;;;;49.40;23.52;;;;;;;;;;5115550;28;20197;-65
2023/01/29 06:21:03;;;;;;;45.40;24.10;;;;;;;;;;5115780;28;20200;-65
2023/01/29 06:23:30;;;;;;;44.58;24.27;;;;;;;;;;5115788;28;20553;-65
2023/01/29 06:26:01;;;;;;;41.28;23.17;;;;;;;;;;5115673;28;20229;-65
2023/01/29 06:28:28;;;;;;;41.50;23.13;;;;;;;;;;5115937;28;20319;-65
2023/01/29 06:30:58;;;;;;;45.58;21.70;;;;;;;;;;5132963;27;20201;-65
2023/01/29 06:33:25;;;;;;;40.75;21.63;;;;;;;;;;5136309;27;20268;-66
2023/01/29 06:35:56;;;;;;;42.88;22.88;;;;;;;;;;5135743;27;20225;-65
2023/01/29 06:38:23;;;;;;;44.35;23.30;;;;;;;;;;5136172;27;20275;-65
2023/01/29 06:40:50;;;;;;;41.60;23.27;;;;;;;;;;5135253;27;20204;-65
2023/01/29 06:43:19;;;;;;;45.38;24.20;;;;;;;;;;5136018;27;20196;-65
2023/01/29 06:45:50;;;;;;;41.35;22.25;;;;;;;;;;5135939;27;20197;-65
2023/01/29 06:48:18;;;;;;;40.78;22.83;;;;;;;;;;5135801;27;20194;-65
2023/01/29 06:50:45;;;;;;;43.08;21.75;;;;;;;;;;5135813;27;20193;-65
2023/01/29 06:53:13;;;;;;;43.58;22.35;;;;;;;;;;5135679;27;20304;-65
2023/01/29 06:55:40;;;;;;;39.28;24.05;;;;;;;;;;5135303;27;20270;-65
2023/01/29 06:58:07;;;;;;;41.13;21.27;;;;;;;;;;5135435;27;20308;-65
2023/01/29 07:00:36;;;;;;;40.85;22.73;;;;;;;;;;5135500;27;20199;-65
2023/01/29 07:03:03;;;;;;;40.97;23.05;;;;;;;;;;5135600;27;20200;-65
2023/01/29 07:05:31;;;;;;;44.58;21.90;;;;;;;;;;5135665;27;20199;-66
2023/01/29 07:07:58;;;;;;;39.33;21.73;;;;;;;;;;5135633;27;20656;-65
2023/01/29 07:10:26;;;;;;;39.78;22.73;;;;;;;;;;5135055;27;20190;-65
2023/01/29 07:12:53;;;;;;;43.95;21.88;;;;;;;;;;5135301;27;20198;-66
2023/01/29 07:15:20;;;;;;;42.45;22.88;;;;;;;;;;5135077;27;20227;-66
2023/01/29 07:17:57;;;;;;;32.97;20.20;;;;;;;;;;5135221;27;20552;-65
2023/01/29 07:20:25;;;;;;;41.85;22.75;;;;;;;;;;5135428;27;20189;-65
2023/01/29 07:22:52;;;;;;;36.92;21.08;;;;;;;;;;5134996;27;20592;-66
2023/01/29 07:25:19;;;;;;;39.92;22.17;;;;;;;;;;5135053;27;20284;-65
2023/01/29 07:27:47;;;;;;;41.58;22.88;;;;;;;;;;5135550;27;20539;-65
2023/01/29 07:30:14;;;;;;;36.90;20.58;;;;;;;;;;5134860;27;20221;-65
2023/01/29 07:32:42;;;;;;;34.80;20.30;;;;;;;;;;5134626;27;20649;-65
2023/01/29 07:35:11;;;;;;;35.65;20.38;;;;;;;;;;5134756;27;20352;-65
2023/01/29 07:37:38;;;;;;;37.90;21.00;;;;;;;;;;5134675;27;20198;-65
2023/01/29 07:40:10;;;;;;;38.90;21.35;;;;;;;;;;5134338;27;20197;-65
2023/01/29 07:42:37;;;;;;;41.65;22.75;;;;;;;;;;5135424;27;20185;-65
2023/01/29 07:45:04;;;;;;;38.10;21.80;;;;;;;;;;5134351;27;20203;-65
2023/01/29 07:47:31;;;;;;;38.45;20.75;;;;;;;;;;5134733;27;20189;-64
2023/01/29 07:49:59;;;;;;;33.45;21.60;;;;;;;;;;5134585;27;20204;-66
2023/01/29 07:52:27;;;;;;;37.95;21.10;;;;;;;;;;5133687;27;20193;-65
2023/01/29 07:54:54;;;;;;;44.13;22.50;;;;;;;;;;5134388;27;20193;-65
2023/01/29 07:57:21;;;;;;;37.10;21.33;;;;;;;;;;5123621;27;20225;-64
2023/01/29 07:59:49;;;;;;;39.00;21.67;;;;;;;;;;5106001;28;20193;-65
2023/01/29 08:02:16;;;;;;;39.45;21.90;;;;;;;;;;5094004;28;20201;-65
2023/01/29 08:04:43;;;;;;;38.20;23.30;;;;;;;;;;5093599;28;20222;-65
2023/01/29 08:07:10;;;;;;;46.10;24.42;;;;;;;;;;5093622;28;20524;-65
2023/01/29 08:09:39;;;;;;;38.67;20.88;;;;;;;;;;5093952;28;20193;-66
2023/01/29 08:12:06;;;;;;;41.90;22.90;;;;;;;;;;5093162;28;20198;-64
2023/01/29 08:14:33;;;;;;;38.90;21.05;;;;;;;;;;5093222;28;20205;-65
2023/01/29 08:17:01;;;;;;;43.08;22.00;;;;;;;;;;5092899;28;20220;-65
2023/01/29 08:19:28;;;;;;;43.15;21.95;;;;;;;;;;5093041;28;20693;-65
2023/01/29 08:21:55;;;;;;;44.90;23.00;;;;;;;;;;5092998;28;20198;-65
2023/01/29 08:24:22;;;;;;;41.08;22.10;;;;;;;;;;5093451;28;20195;-65
2023/01/29 08:26:51;;;;;;;36.88;22.52;;;;;;;;;;5093091;28;20197;-65
2023/01/29 08:29:18;;;;;;;38.85;21.90;;;;;;;;;;5093053;28;20199;-65
2023/01/29 08:31:45;;;;;;;38.20;21.42;;;;;;;;;;5092949;28;20203;-65
2023/01/29 08:34:12;;;;;;;35.53;19.48;;;;;;;;;;5093303;28;20221;-65
2023/01/29 08:36:39;;;;;;;38.03;21.15;;;;;;;;;;5092850;28;20307;-65
2023/01/29 08:39:06;;;;;;;37.15;21.23;;;;;;;;;;5092960;28;20652;-65
2023/01/29 08:41:34;;;;;;;41.85;23.27;;;;;;;;;;5093185;28;20202;-65
2023/01/29 08:44:03;;;;;;;39.38;21.92;;;;;;;;;;5093234;28;20199;-65
2023/01/29 08:46:30;;;;;;;48.67;23.73;;;;;;;;;;5093101;28;20200;-65
2023/01/29 08:48:57;;;;;;;43.63;22.48;;;;;;;;;;5093081;28;20253;-65
2023/01/29 08:51:25;;;;;;;41.28;22.67;;;;;;;;;;5093129;28;20198;-65
2023/01/29 08:53:52;;;;;;;43.30;24.75;;;;;;;;;;5093112;28;20671;-65
2023/01/29 08:56:20;;;;;;;40.53;24.50;;;;;;;;;;5094620;28;20224;-65
2023/01/29 08:58:47;;;;;;;39.08;21.95;;;;;;;;;;5113537;28;20184;-66
2023/01/29 09:01:15;;;;;;;38.13;23.48;;;;;;;;;;5113191;28;20285;-65
2023/01/29 09:03:43;;;;;;;39.90;21.95;;;;;;;;;;5116304;28;20219;-65
2023/01/29 09:06:11;;;;;;;46.85;24.65;;;;;;;;;;5117331;28;20198;-65
2023/01/29 09:08:38;;;;;;;40.72;25.08;;;;;;;;;;5117285;28;20189;-65
2023/01/29 09:11:06;;;;;;;37.40;22.15;;;;;;;;;;5117006;28;20201;-65
2023/01/29 09:13:33;;;;;;;41.40;23.75;;;;;;;;;;5117183;28;20278;-65
2023/01/29 09:16:01;;;;;;;43.67;21.63;;;;;;;;;;5117217;28;20312;-65
2023/01/29 09:18:30;;;;;;;45.20;22.70;;;;;;;;;;5117073;28;20200;-65
2023/01/29 09:20:57;;;;;;;46.92;24.30;;;;;;;;;;5116876;28;20198;-65
2023/01/29 09:23:24;;;;;;;40.53;23.83;;;;;;;;;;5118556;27;20223;-65
2023/01/29 09:25:52;;;;;;;35.78;21.88;;;;;;;;;;5116656;28;20200;-65
2023/01/29 09:28:19;;;;;;;40.80;23.45;;;;;;;;;;5116382;28;20190;-65
2023/01/29 09:30:46;;;;;;;38.60;22.58;;;;;;;;;;5126755;27;20561;-65
2023/01/29 09:33:15;;;;;;;40.30;22.63;;;;;;;;;;5117178;27;20214;-65
2023/01/29 09:35:45;;;;;;;45.65;24.73;;;;;;;;;;5116213;28;20220;-65
2023/01/29 09:38:13;;;;;;;44.63;25.73;;;;;;;;;;5124310;27;20185;-65
2023/01/29 09:40:43;;;;;;;35.78;22.10;;;;;;;;;;5137181;27;20197;-65
2023/01/29 09:43:14;;;;;;;45.03;24.92;;;;;;;;;;5136827;27;20186;-65
2023/01/29 09:45:50;;;;;;;43.40;24.40;;;;;;;;;;5136790;27;20183;-65
2023/01/29 09:48:17;;;;;;;42.25;24.10;;;;;;;;;;5116540;28;20271;-64
2023/01/29 09:50:47;;;;;;;42.70;21.80;;;;;;;;;;5116532;28;20196;-64
2023/01/29 09:53:17;;;;;;;41.92;24.00;;;;;;;;;;5133984;27;20207;-65
2023/01/29 09:55:47;;;;;;;40.70;23.20;;;;;;;;;;5137199;27;20221;-64
2023/01/29 09:58:17;;;;;;;44.45;23.38;;;;;;;;;;5136772;27;20248;-64
2023/01/29 10:00:47;;;;;;;39.65;25.30;;;;;;;;;;5136875;27;20186;-64
2023/01/29 10:03:21;;;;;;;36.45;20.63;;;;;;;;;;5133583;27;20179;-64
2023/01/29 10:06:01;;;;;;;38.63;23.15;;;;;;;;;;5115962;28;20193;-64
2023/01/29 10:08:41;;;;;;;44.90;22.85;;;;;;;;;;5116352;28;20179;-64
2023/01/29 10:11:13;;;;;;;40.67;24.08;;;;;;;;;;5116240;28;20212;-64
2023/01/29 10:13:45;;;;;;;46.53;25.60;;;;;;;;;;5115566;28;20188;-64
2023/01/29 10:16:18;;;;;;;46.08;25.13;;;;;;;;;;5115961;28;20203;-64
2023/01/29 10:18:54;;;;;;;41.60;25.20;;;;;;;;;;5116007;28;20183;-64
2023/01/29 10:21:32;;;;;;;40.88;21.98;;;;;;;;;;5116018;28;20183;-64
2023/01/29 10:24:03;;;;;;;38.55;23.10;;;;;;;;;;5115618;28;20184;-64
2023/01/29 10:26:34;;;;;;;41.53;23.20;;;;;;;;;;5115805;28;20199;-64
2023/01/29 10:29:03;;;;;;;43.17;23.23;;;;;;;;;;5115775;28;20188;-64
2023/01/29 10:31:31;;;;;;;45.75;25.52;;;;;;;;;;5128060;27;20207;-64
2023/01/29 10:34:02;;;;;;;41.28;23.73;;;;;;;;;;5135880;27;20202;-64
2023/01/29 10:36:33;;;;;;;36.88;24.02;;;;;;;;;;5136244;27;20242;-64
2023/01/29 10:39:01;;;;;;;40.55;23.65;;;;;;;;;;5135966;27;20182;-64
2023/01/29 10:41:42;;;;;;;49.70;25.50;;;;;;;;;;5136157;27;20202;-64
2023/01/29 10:44:19;;;;;;;43.80;24.83;;;;;;;;;;5135774;27;20265;-64
2023/01/29 10:46:52;;;;;;;47.15;27.10;;;;;;;;;;5136334;27;20226;-64
2023/01/29 10:49:25;;;;;;;43.10;24.10;;;;;;;;;;5135751;27;20649;-65
2023/01/29 10:52:01;;;;;;;41.45;25.42;;;;;;;;;;5135692;27;20178;-63
2023/01/29 10:54:34;;;;;;;50.22;24.00;;;;;;;;;;5136189;27;20185;-64
2023/01/29 10:57:08;;;;;;;38.92;23.27;;;;;;;;;;5135444;27;20238;-64
2023/01/29 10:59:46;;;;;;;44.90;25.70;;;;;;;;;;5135842;27;20183;-64
2023/01/29 11:02:16;;;;;;;42.08;24.85;;;;;;;;;;5135647;27;20268;-64
2023/01/29 11:04:44;;;;;;;43.75;25.38;;;;;;;;;;5131769;27;20187;-64
2023/01/29 11:07:13;;;;;;;43.58;25.25;;;;;;;;;;5114685;28;20659;-64
2023/01/29 11:09:43;;;;;;;45.10;26.38;;;;;;;;;;5115030;28;20195;-64
2023/01/29 11:12:12;;;;;;;51.60;26.10;;;;;;;;;;5115103;28;20186;-64
2023/01/29 11:14:43;;;;;;;39.97;23.05;;;;;;;;;;5114888;28;20203;-64
2023/01/29 11:17:15;;;;;;;39.22;23.20;;;;;;;;;;5115154;28;20675;-64
2023/01/29 11:19:44;;;;;;;36.70;22.02;;;;;;;;;;5115275;28;20186;-64
2023/01/29 11:22:15;;;;;;;39.42;21.10;;;;;;;;;;5114744;28;20194;-64
2023/01/29 11:24:42;;;;;;;48.15;27.02;;;;;;;;;;5114682;28;20208;-64
2023/01/29 11:27:17;;;;;;;44.47;25.55;;;;;;;;;;5113762;28;20203;-64
2023/01/29 11:29:46;;;;;;;46.03;25.00;;;;;;;;;;5114185;28;20668;-64
2023/01/29 11:32:14;;;;;;;45.55;25.55;;;;;;;;;;5120912;27;20191;-64
2023/01/29 11:34:58;;;;;;;50.78;26.00;;;;;;;;;;5135001;27;20196;-64
2023/01/29 11:37:32;;;;;;;39.22;23.00;;;;;;;;;;5134591;27;20710;-64
2023/01/29 11:39:59;;;;;;;41.03;23.10;;;;;;;;;;5135073;27;20182;-64
2023/01/29 11:42:30;;;;;;;39.72;23.00;;;;;;;;;;5135293;27;20283;-64
2023/01/29 11:44:58;;;;;;;41.05;24.00;;;;;;;;;;5134643;27;20627;-64
2023/01/29 11:47:27;;;;;;;43.45;23.80;;;;;;;;;;5134581;27;20203;-64
2023/01/29 11:49:55;;;;;;;41.03;22.85;;;;;;;;;;5134429;27;20285;-64
2023/01/29 11:52:23;;;;;;;43.83;23.85;;;;;;;;;;5135059;27;20197;-63
2023/01/29 11:54:53;;;;;;;44.67;25.02;;;;;;;;;;5134703;27;20201;-63
2023/01/29 11:57:30;;;;;;;45.13;24.08;;;;;;;;;;5134303;27;20333;-64
2023/01/29 12:00:01;;;;;;;38.85;23.35;;;;;;;;;;5134382;27;20222;-64
2023/01/29 12:02:31;;;;;;;41.90;22.05;;;;;;;;;;5135563;27;20187;-63
2023/01/29 12:05:00;;;;;;;45.30;24.10;;;;;;;;;;5134732;27;20179;-63
2023/01/29 12:07:28;;;;;;;46.20;26.45;;;;;;;;;;5134852;27;20195;-63
2023/01/29 12:09:58;;;;;;;42.65;24.60;;;;;;;;;;5134520;27;20195;-65
2023/01/29 12:12:30;;;;;;;45.47;24.67;;;;;;;;;;5134881;27;20182;-63
2023/01/29 12:15:16;;;;;;;43.25;24.42;;;;;;;;;;5132208;27;20199;-64
2023/01/29 12:17:46;;;;;;;39.75;22.20;;;;;;;;;;5132140;27;20210;-64
2023/01/29 12:20:15;;;;;;;41.03;23.58;;;;;;;;;;5134137;28;20643;-64
2023/01/29 12:22:46;;;;;;;33.45;21.10;;;;;;;;;;5134209;28;20199;-64
2023/01/29 12:25:21;;;;;;;43.55;22.13;;;;;;;;;;5133919;28;20189;-64
2023/01/29 12:27:50;;;;;;;37.83;22.52;;;;;;;;;;5134722;28;20221;-64
2023/01/29 12:30:20;;;;;;;43.28;22.10;;;;;;;;;;5133887;28;20195;-63
2023/01/29 12:32:50;;;;;;;40.97;23.27;;;;;;;;;;5134147;28;20555;-64
2023/01/29 12:35:19;;;;;;;42.67;25.38;;;;;;;;;;5133981;28;20567;-64
2023/01/29 12:37:52;;;;;;;37.30;21.02;;;;;;;;;;5135181;27;20706;-63
2023/01/29 12:40:22;;;;;;;39.42;20.23;;;;;;;;;;5138079;27;20191;-64
2023/01/29 12:42:51;;;;;;;40.20;24.05;;;;;;;;;;5138370;27;20248;-65
2023/01/29 12:45:20;;;;;;;43.35;23.38;;;;;;;;;;5137891;27;20195;-63
2023/01/29 12:47:49;;;;;;;36.13;21.10;;;;;;;;;;5138298;27;20204;-64
2023/01/29 12:50:20;;;;;;;37.95;21.88;;;;;;;;;;5138124;27;20194;-64
2023/01/29 12:52:49;;;;;;;39.60;22.27;;;;;;;;;;5138184;27;20182;-64
2023/01/29 12:55:18;;;;;;;43.35;22.08;;;;;;;;;;5137722;27;20197;-64
2023/01/29 12:57:49;;;;;;;38.17;23.23;;;;;;;;;;5137494;27;20321;-63
2023/01/29 13:00:18;;;;;;;42.95;22.13;;;;;;;;;;5137973;27;20183;-64
2023/01/29 13:02:48;;;;;;;42.28;22.65;;;;;;;;;;5137851;27;20606;-64
2023/01/29 13:05:19;;;;;;;41.58;23.60;;;;;;;;;;5137819;27;20197;-64
2023/01/29 13:07:49;;;;;;;38.35;22.77;;;;;;;;;;5137608;27;20190;-64
2023/01/29 13:10:21;;;;;;;45.20;22.85;;;;;;;;;;5137913;27;20615;-63
2023/01/29 13:12:53;;;;;;;41.05;21.73;;;;;;;;;;5137776;27;20183;-64
2023/01/29 13:15:23;;;;;;;42.05;23.00;;;;;;;;;;5137413;27;20183;-64
2023/01/29 13:17:53;;;;;;;43.58;23.83;;;;;;;;;;5137747;27;20242;-64
2023/01/29 13:20:23;;;;;;;42.42;24.10;;;;;;;;;;5137554;27;20231;-64
2023/01/29 13:22:51;;;;;;;36.95;24.95;;;;;;;;;;5137826;27;20505;-64
2023/01/29 13:25:19;;;;;;;42.67;23.10;;;;;;;;;;5137509;27;20193;-64
2023/01/29 13:27:47;;;;;;;34.03;19.98;;;;;;;;;;5137131;27;20203;-64
2023/01/29 13:30:30;;;;;;;44.50;24.60;;;;;;;;;;5137310;27;20228;-64
2023/01/29 13:33:07;;;;;;;42.63;23.63;;;;;;;;;;5137634;27;20252;-64
2023/01/29 13:35:35;;;;;;;41.10;22.30;;;;;;;;;;5137305;27;20181;-64
2023/01/29 13:38:03;;;;;;;46.70;24.55;;;;;;;;;;5136946;27;20221;-64
2023/01/29 13:40:32;;;;;;;44.20;23.23;;;;;;;;;;5136815;27;20204;-64
2023/01/29 13:43:00;;;;;;;33.50;21.80;;;;;;;;;;5137279;27;20206;-64
2023/01/29 13:45:31;;;;;;;31.05;20.63;;;;;;;;;;5136907;27;20746;-64
2023/01/29 13:48:09;;;;;;;46.15;21.55;;;;;;;;;;5137464;27;20621;-65
2023/01/29 13:50:38;;;;;;;37.17;23.67;;;;;;;;;;5135658;27;20677;-65
2023/01/29 13:53:07;;;;;;;41.35;22.58;;;;;;;;;;5136782;27;20194;-66
2023/01/29 13:55:35;;;;;;;37.40;22.45;;;;;;;;;;5136915;27;20203;-65
2023/01/29 13:58:03;;;;;;;40.08;22.92;;;;;;;;;;5136389;27;20235;-66
2023/01/29 14:00:58;;;;;;;34.25;20.05;;;;;;;;;;5136545;27;20194;-65
2023/01/29 14:03:55;;;;;;;35.67;21.42;;;;;;;;;;5137177;27;20241;-65
2023/01/29 14:06:42;;;;;;;34.50;19.05;;;;;;;;;;5136971;27;20271;-64
2023/01/29 14:09:27;;;;;;;43.25;22.70;;;;;;;;;;5137147;27;20734;-64
2023/01/29 14:11:55;;;;;;;37.17;21.80;;;;;;;;;;5136284;27;20283;-65
2023/01/29 14:14:41;;;;;;;39.38;22.83;;;;;;;;;;5136764;27;20196;-64
2023/01/29 14:17:08;;;;;;;37.38;22.05;;;;;;;;;;5136471;27;20222;-64
2023/01/29 14:19:35;;;;;;;34.65;20.50;;;;;;;;;;5136748;27;20204;-66
2023/01/29 14:22:05;;;;;;;39.35;22.25;;;;;;;;;;5136559;27;20197;-65
2023/01/29 14:24:32;;;;;;;39.85;22.88;;;;;;;;;;5134844;27;20206;-65
2023/01/29 14:27:00;;;;;;;38.92;23.33;;;;;;;;;;5136467;27;20190;-64
2023/01/29 14:29:30;;;;;;;32.33;20.67;;;;;;;;;;5136414;27;20202;-65
2023/01/29 14:31:59;;;;;;;35.72;22.75;;;;;;;;;;5136320;27;20524;-66
2023/01/29 14:34:28;;;;;;;38.30;21.98;;;;;;;;;;5135838;27;20194;-66
2023/01/29 14:36:56;;;;;;;38.72;24.13;;;;;;;;;;5135640;27;20197;-66
2023/01/29 14:39:36;;;;;;;38.92;21.20;;;;;;;;;;5135740;27;20248;-63
2023/01/29 14:42:05;;;;;;;37.00;23.10;;;;;;;;;;5135644;27;20622;-63
2023/01/29 14:44:53;;;;;;;37.03;21.67;;;;;;;;;;5135951;27;20727;-64
2023/01/29 14:47:21;;;;;;;43.35;25.55;;;;;;;;;;5093308;27;20244;-64
2023/01/29 14:49:49;;;;;;;35.60;20.45;;;;;;;;;;5135850;27;20195;-64
2023/01/29 14:52:17;;;;;;;39.10;23.35;;;;;;;;;;5135731;27;20190;-67
2023/01/29 14:54:46;;;;;;;38.17;23.13;;;;;;;;;;5135788;27;20671;-65
2023/01/29 14:57:16;;;;;;;31.73;18.95;;;;;;;;;;5135514;27;20236;-66
2023/01/29 14:59:47;;;;;;;45.55;23.38;;;;;;;;;;5135662;27;20276;-66
2023/01/29 15:02:17;;;;;;;41.38;24.05;;;;;;;;;;5135365;27;20695;-66